Terminal Aerodrome Forecast
Issued by NWS Sterling, VA

Home | Current Version | Previous Version | Text Only | Print | Product List | Glossary On
Versions: 1 2 3 4 5 6 7 8 9 10 11 12 13 14 15 16 17 18 19 20 21 22 23 24
000
FTUS41 KLWX 270531
TAFDCA
TAF
KDCA 270531Z 2706/2806 31007KT P6SM FEW080
     FM270800 32005KT P6SM BKN080
     FM271600 27008KT P6SM BKN070
     FM272300 29008KT P6SM SCT070=

USA.gov is the U.S. government's official web portal to all federal, state and local government web resources and services.